createdAt,value
2018-09-18T00:01:27.732Z,14.90
2018-09-18T00:03:56.069Z,14.90
2018-09-18T00:06:24.403Z,14.80
2018-09-18T00:08:52.847Z,14.80
2018-09-18T00:11:21.169Z,14.80
2018-09-18T00:13:49.547Z,14.70
2018-09-18T00:16:17.903Z,14.70
2018-09-18T00:18:46.335Z,14.70
2018-09-18T00:21:14.795Z,14.70
2018-09-18T00:23:43.144Z,14.60
2018-09-18T00:26:11.911Z,14.60
2018-09-18T00:28:40.237Z,14.50
2018-09-18T00:31:08.603Z,14.50
2018-09-18T00:33:36.953Z,14.40
2018-09-18T00:36:05.480Z,14.40
2018-09-18T00:38:33.845Z,14.40
2018-09-18T00:41:02.189Z,14.40
2018-09-18T00:43:30.523Z,14.30
2018-09-18T00:45:58.913Z,14.30
2018-09-18T00:48:27.704Z,14.30
2018-09-18T00:50:56.082Z,14.30
2018-09-18T00:53:24.455Z,14.20
2018-09-18T00:55:52.764Z,14.20
2018-09-18T00:58:21.158Z,14.20
2018-09-18T01:00:49.511Z,14.20
2018-09-18T01:03:18.594Z,14.20
2018-09-18T01:05:46.925Z,14.10
2018-09-18T01:08:15.248Z,14.10
2018-09-18T01:10:43.602Z,14.00
2018-09-18T01:13:11.948Z,14.00
2018-09-18T01:15:40.382Z,14.00
2018-09-18T01:18:08.714Z,14.00
2018-09-18T01:20:37.654Z,13.90
2018-09-18T01:23:06.058Z,13.90
2018-09-18T01:25:34.390Z,13.80
2018-09-18T01:28:02.728Z,13.80
2018-09-18T01:30:31.952Z,13.80
2018-09-18T01:33:00.438Z,13.80
2018-09-18T01:35:28.800Z,13.80
2018-09-18T01:37:57.127Z,13.70
2018-09-18T01:40:25.480Z,13.70
2018-09-18T01:42:53.800Z,13.70
2018-09-18T01:45:22.138Z,13.70
2018-09-18T01:47:50.504Z,13.60
2018-09-18T01:50:18.822Z,13.50
2018-09-18T01:52:47.180Z,13.50
2018-09-18T01:55:15.513Z,13.50
2018-09-18T01:57:43.842Z,13.40
2018-09-18T02:00:12.236Z,13.40
2018-09-18T02:02:41.258Z,13.30
2018-09-18T02:05:09.578Z,13.30
2018-09-18T02:07:38.573Z,13.30
2018-09-18T02:10:06.890Z,13.30
2018-09-18T02:12:35.212Z,13.20
2018-09-18T02:15:03.563Z,13.20
2018-09-18T02:17:31.902Z,13.20
2018-09-18T02:20:00.228Z,13.20
2018-09-18T02:22:28.590Z,13.20
2018-09-18T02:27:31.678Z,13.20
2018-09-18T02:30:00.142Z,13.20
2018-09-18T02:32:28.533Z,13.20
2018-09-18T02:34:56.844Z,13.20
2018-09-18T02:37:25.310Z,13.20
2018-09-18T02:39:53.680Z,13.10
2018-09-18T02:42:22.672Z,13.10
2018-09-18T02:44:51.398Z,13.10
2018-09-18T02:47:19.837Z,13.10
2018-09-18T02:49:48.809Z,13.10
2018-09-18T02:52:17.188Z,13.10
2018-09-18T02:54:45.540Z,13.10
2018-09-18T02:57:20.457Z,13.10
2018-09-18T02:59:48.812Z,13.10
2018-09-18T03:02:17.144Z,13.00
2018-09-18T03:04:45.580Z,13.00
2018-09-18T03:07:13.936Z,13.00
2018-09-18T03:09:42.243Z,12.90
2018-09-18T03:12:10.634Z,12.80
2018-09-18T03:14:39.006Z,12.70
2018-09-18T03:17:07.366Z,12.60
2018-09-18T03:19:35.728Z,12.40
2018-09-18T03:22:04.072Z,12.40
2018-09-18T03:24:33.170Z,12.40
2018-09-18T03:27:01.516Z,12.40
2018-09-18T03:29:29.851Z,12.40
2018-09-18T03:31:58.642Z,12.40
2018-09-18T03:34:27.003Z,12.50
2018-09-18T03:36:55.467Z,12.50
2018-09-18T03:39:23.755Z,12.50
2018-09-18T03:41:52.208Z,12.40
2018-09-18T03:44:20.590Z,12.40
2018-09-18T03:46:48.909Z,12.40
2018-09-18T03:49:17.267Z,12.40
2018-09-18T03:51:45.600Z,12.30
2018-09-18T03:54:13.905Z,12.30
2018-09-18T03:56:42.256Z,12.30
2018-09-18T03:59:10.590Z,12.30
2018-09-18T04:01:39.619Z,12.30
2018-09-18T04:04:07.933Z,12.30
2018-09-18T04:06:36.282Z,12.20
2018-09-18T04:09:07.270Z,12.20
2018-09-18T04:11:35.586Z,12.20
2018-09-18T04:14:03.966Z,12.10
2018-09-18T04:16:32.288Z,12.10
2018-09-18T04:19:00.653Z,12.00
2018-09-18T04:21:34.351Z,12.00
2018-09-18T04:24:02.690Z,12.00
2018-09-18T04:26:31.050Z,11.90
2018-09-18T04:28:59.364Z,11.90
2018-09-18T04:31:27.928Z,11.90
2018-09-18T04:33:56.284Z,11.90
2018-09-18T04:36:31.339Z,11.90
2018-09-18T04:39:00.597Z,11.90
2018-09-18T04:41:29.056Z,11.90
2018-09-18T04:43:57.466Z,11.90
2018-09-18T04:46:32.330Z,11.90
2018-09-18T04:49:00.669Z,11.80
2018-09-18T04:51:29.777Z,11.80
2018-09-18T04:53:58.098Z,11.70
2018-09-18T04:56:26.609Z,11.70
2018-09-18T04:58:54.997Z,11.70
2018-09-18T05:01:23.432Z,11.70
2018-09-18T05:03:51.784Z,11.60
2018-09-18T05:06:20.156Z,11.60
2018-09-18T05:08:49.031Z,11.60
2018-09-18T05:11:17.507Z,11.60
2018-09-18T05:13:45.867Z,11.60
2018-09-18T05:16:14.235Z,11.60
2018-09-18T05:18:42.552Z,11.70
2018-09-18T05:21:11.005Z,11.80
2018-09-18T05:23:39.403Z,11.90
2018-09-18T05:26:08.371Z,12.00
2018-09-18T05:28:36.738Z,12.00
2018-09-18T05:31:05.419Z,12.20
2018-09-18T05:33:34.492Z,12.20
2018-09-18T05:36:02.892Z,12.30
2018-09-18T05:38:31.361Z,12.30
2018-09-18T05:40:59.717Z,12.30
2018-09-18T05:43:28.067Z,12.40
2018-09-18T05:45:56.411Z,12.40
2018-09-18T05:48:24.767Z,12.40
2018-09-18T05:50:53.237Z,12.40
2018-09-18T05:53:21.569Z,12.50
2018-09-18T05:55:49.887Z,12.60
2018-09-18T05:58:18.229Z,12.60
2018-09-18T06:00:46.653Z,12.70
2018-09-18T06:03:14.991Z,12.70
2018-09-18T06:05:43.323Z,12.80
2018-09-18T06:08:11.674Z,12.80
2018-09-18T06:10:39.997Z,12.80
2018-09-18T06:13:08.453Z,12.90
2018-09-18T06:15:36.783Z,12.90
2018-09-18T06:18:05.183Z,13.00
2018-09-18T06:20:33.515Z,13.10
2018-09-18T06:23:01.838Z,13.20
2018-09-18T06:25:30.292Z,13.30
2018-09-18T06:27:58.611Z,13.40
2018-09-18T06:30:26.994Z,13.50
2018-09-18T06:32:55.351Z,13.60
2018-09-18T06:35:23.682Z,13.60
2018-09-18T06:37:52.240Z,13.70
2018-09-18T06:40:20.578Z,13.70
2018-09-18T06:42:48.920Z,13.80
2018-09-18T06:45:17.271Z,13.80
2018-09-18T06:47:46.219Z,13.90
2018-09-18T06:50:14.578Z,14.00
2018-09-18T06:52:42.944Z,14.10
2018-09-18T06:55:11.314Z,14.20
2018-09-18T06:57:39.730Z,14.30
2018-09-18T07:00:08.095Z,14.40
2018-09-18T07:02:36.460Z,14.50
2018-09-18T07:05:04.816Z,14.70
2018-09-18T07:07:33.162Z,14.80
2018-09-18T07:10:01.530Z,14.90
2018-09-18T07:12:29.884Z,15.00
2018-09-18T07:14:58.248Z,15.10
2018-09-18T07:17:27.337Z,15.20
2018-09-18T07:19:55.714Z,15.30
2018-09-18T07:22:24.091Z,15.40
2018-09-18T07:24:52.544Z,15.60
2018-09-18T07:27:20.856Z,15.70
2018-09-18T07:29:49.191Z,15.80
2018-09-18T07:32:17.542Z,15.90
2018-09-18T07:34:45.894Z,16.00
2018-09-18T07:37:14.250Z,16.20
2018-09-18T07:39:42.618Z,16.30
2018-09-18T07:42:10.924Z,16.50
2018-09-18T07:44:39.292Z,16.70
2018-09-18T07:47:07.669Z,16.90
2018-09-18T07:49:36.005Z,17.10
2018-09-18T07:52:04.976Z,17.40
2018-09-18T07:54:33.484Z,17.60
2018-09-18T07:57:01.844Z,18.00
2018-09-18T07:59:30.212Z,18.20
2018-09-18T08:01:58.581Z,18.40
2018-09-18T08:04:26.982Z,18.70
2018-09-18T08:06:55.345Z,18.90
2018-09-18T08:09:23.789Z,19.20
2018-09-18T08:11:52.127Z,19.30
2018-09-18T08:14:20.473Z,19.60
2018-09-18T08:16:48.829Z,19.70
2018-09-18T08:19:17.199Z,20.10
2018-09-18T08:21:45.513Z,20.30
2018-09-18T08:24:13.845Z,20.50
2018-09-18T08:26:42.215Z,20.50
2018-09-18T08:29:10.574Z,20.60
2018-09-18T08:31:38.965Z,20.80
2018-09-18T08:34:07.313Z,21.00
2018-09-18T08:36:35.643Z,21.30
2018-09-18T08:39:05.017Z,21.40
2018-09-18T08:41:33.407Z,21.60
2018-09-18T08:44:01.734Z,21.80
2018-09-18T08:46:30.108Z,21.90
2018-09-18T08:48:58.921Z,22.10
2018-09-18T08:51:27.638Z,22.20
2018-09-18T08:53:56.028Z,22.40
2018-09-18T08:56:24.388Z,22.50
2018-09-18T08:58:52.782Z,22.60
2018-09-18T09:01:21.132Z,22.70
2018-09-18T09:03:49.457Z,22.80
2018-09-18T09:06:17.981Z,22.90
2018-09-18T09:08:46.460Z,23.10
2018-09-18T09:11:14.786Z,23.20
2018-09-18T09:13:43.146Z,23.30
2018-09-18T09:16:11.550Z,23.40
2018-09-18T09:18:39.890Z,23.50
2018-09-18T09:21:08.327Z,23.60
2018-09-18T09:23:36.676Z,23.60
2018-09-18T09:26:04.999Z,23.70
2018-09-18T09:28:33.348Z,23.80
2018-09-18T09:31:01.733Z,23.70
2018-09-18T09:33:30.098Z,23.70
2018-09-18T09:35:58.436Z,23.90
2018-09-18T09:38:27.650Z,24.10
2018-09-18T09:40:56.114Z,24.10
2018-09-18T09:43:24.496Z,24.20
2018-09-18T09:45:52.855Z,24.40
2018-09-18T09:48:21.207Z,24.50
2018-09-18T09:50:49.600Z,24.70
2018-09-18T09:53:18.051Z,24.80
2018-09-18T09:55:46.416Z,24.70
2018-09-18T09:58:14.815Z,24.80
2018-09-18T10:00:48.522Z,24.90
2018-09-18T10:03:16.876Z,25.00
2018-09-18T10:05:45.328Z,25.10
2018-09-18T10:08:13.675Z,25.20
2018-09-18T10:10:42.094Z,25.40
2018-09-18T10:13:10.376Z,25.60
2018-09-18T10:15:38.730Z,25.60
2018-09-18T10:18:07.111Z,25.70
2018-09-18T10:20:35.535Z,25.80
2018-09-18T10:23:03.925Z,25.90
2018-09-18T10:25:32.959Z,25.90
2018-09-18T10:28:01.321Z,26.00
2018-09-18T10:30:29.704Z,26.00
2018-09-18T10:32:58.060Z,26.20
2018-09-18T10:35:26.448Z,26.30
2018-09-18T10:37:55.417Z,26.40
2018-09-18T10:40:23.770Z,26.40
2018-09-18T10:42:52.156Z,26.50
2018-09-18T10:45:20.499Z,26.70
2018-09-18T10:47:48.822Z,27.00
2018-09-18T10:50:17.178Z,26.80
2018-09-18T10:52:46.351Z,26.90
2018-09-18T10:55:15.094Z,26.80
2018-09-18T10:57:43.472Z,26.70
2018-09-18T11:00:11.834Z,26.90
2018-09-18T11:02:40.184Z,27.10
2018-09-18T11:05:08.572Z,27.30
2018-09-18T11:07:37.071Z,27.30
2018-09-18T11:10:05.898Z,27.40
2018-09-18T11:12:34.251Z,27.40
2018-09-18T11:15:02.672Z,27.50
2018-09-18T11:17:30.968Z,27.60
2018-09-18T11:19:59.399Z,27.50
2018-09-18T11:22:27.870Z,27.60
2018-09-18T11:24:56.050Z,27.80
2018-09-18T11:27:24.414Z,28.10
2018-09-18T11:29:53.000Z,27.90
2018-09-18T11:32:21.354Z,28.00
2018-09-18T11:34:49.784Z,28.00
2018-09-18T11:37:18.132Z,28.20
2018-09-18T11:39:46.490Z,28.50
2018-09-18T11:42:14.821Z,28.30
2018-09-18T11:44:43.147Z,28.10
2018-09-18T11:47:11.992Z,28.40
2018-09-18T11:49:40.314Z,28.70
2018-09-18T11:52:09.597Z,29.00
2018-09-18T11:54:37.943Z,29.10
2018-09-18T11:57:06.351Z,29.00
2018-09-18T11:59:34.713Z,29.20
2018-09-18T12:02:03.056Z,29.20
2018-09-18T12:04:31.450Z,29.40
2018-09-18T12:07:00.000Z,29.60
2018-09-18T12:09:28.433Z,29.60
2018-09-18T12:11:56.788Z,29.50
2018-09-18T12:14:25.332Z,29.50
2018-09-18T12:16:53.814Z,29.30
2018-09-18T12:19:22.207Z,29.20
2018-09-18T12:21:51.201Z,29.10
2018-09-18T12:24:19.676Z,28.90
2018-09-18T12:26:48.084Z,28.80
2018-09-18T12:29:16.448Z,28.40
2018-09-18T12:31:45.465Z,28.10
2018-09-18T12:34:13.813Z,28.20
2018-09-18T12:36:42.163Z,28.30
2018-09-18T12:39:10.651Z,28.70
2018-09-18T12:41:39.706Z,29.30
2018-09-18T12:44:08.148Z,29.00
2018-09-18T12:46:36.473Z,29.40
2018-09-18T12:49:05.232Z,29.50
2018-09-18T12:51:33.490Z,29.60
2018-09-18T12:54:01.940Z,29.50
2018-09-18T12:56:30.327Z,29.50
2018-09-18T12:58:58.773Z,29.60
2018-09-18T13:01:27.085Z,30.00
2018-09-18T13:03:55.421Z,30.00
2018-09-18T13:06:23.850Z,29.40
2018-09-18T13:08:52.166Z,29.50
2018-09-18T13:11:20.495Z,29.80
2018-09-18T13:13:48.924Z,29.60
2018-09-18T13:16:17.275Z,29.50
2018-09-18T13:18:45.601Z,29.40
2018-09-18T13:21:14.551Z,29.50
2018-09-18T13:23:42.979Z,29.50
2018-09-18T13:26:11.307Z,29.50
2018-09-18T13:28:39.693Z,29.00
2018-09-18T13:31:08.183Z,28.80
2018-09-18T13:33:36.556Z,28.80
2018-09-18T13:36:04.901Z,28.70
2018-09-18T13:38:33.254Z,28.60
2018-09-18T13:41:01.707Z,28.90
2018-09-18T13:43:30.009Z,29.20
2018-09-18T13:45:58.393Z,29.60
2018-09-18T13:48:26.779Z,29.80
2018-09-18T13:50:55.184Z,30.30
2018-09-18T13:53:23.511Z,30.10
2018-09-18T13:55:51.875Z,29.80
2018-09-18T13:58:20.296Z,30.10
2018-09-18T14:00:48.683Z,30.40
2018-09-18T14:03:17.039Z,30.60
2018-09-18T14:05:45.453Z,30.30
2018-09-18T14:08:13.882Z,30.40
2018-09-18T14:10:42.282Z,30.80
2018-09-18T14:13:10.719Z,30.90
2018-09-18T14:15:39.101Z,31.20
2018-09-18T14:18:07.813Z,31.30
2018-09-18T14:20:36.189Z,30.90
2018-09-18T14:23:04.529Z,30.80
2018-09-18T14:25:33.424Z,30.40
2018-09-18T14:28:01.800Z,30.20
2018-09-18T14:30:30.225Z,29.70
2018-09-18T14:32:58.618Z,29.30
2018-09-18T14:35:26.991Z,29.20
2018-09-18T14:37:56.010Z,29.00
2018-09-18T14:40:24.388Z,28.90
2018-09-18T14:42:52.673Z,28.70
2018-09-18T14:45:21.083Z,28.50
2018-09-18T14:47:49.472Z,28.40
2018-09-18T14:50:17.782Z,28.40
2018-09-18T14:52:46.132Z,28.30
2018-09-18T14:55:15.230Z,28.40
2018-09-18T14:57:43.590Z,28.50
2018-09-18T15:00:12.032Z,28.30
2018-09-18T15:02:40.342Z,28.40
2018-09-18T15:05:08.719Z,28.30
2018-09-18T15:07:37.135Z,28.30
2018-09-18T15:10:05.854Z,28.30
2018-09-18T15:12:34.305Z,28.20
2018-09-18T15:15:02.648Z,28.10
2018-09-18T15:17:31.019Z,28.20
2018-09-18T15:19:59.350Z,28.10
2018-09-18T15:22:27.782Z,28.10
2018-09-18T15:24:56.179Z,28.10
2018-09-18T15:27:24.549Z,28.10
2018-09-18T15:29:52.902Z,28.10
2018-09-18T15:32:21.302Z,28.10
2018-09-18T15:34:49.768Z,28.10
2018-09-18T15:37:18.089Z,28.00
2018-09-18T15:39:47.715Z,28.00
2018-09-18T15:42:16.117Z,28.00
2018-09-18T15:44:44.472Z,27.90
2018-09-18T15:47:12.832Z,27.80
2018-09-18T15:49:41.239Z,27.60
2018-09-18T15:52:09.620Z,27.40
2018-09-18T15:54:37.974Z,27.30
2018-09-18T15:57:06.387Z,27.20
2018-09-18T15:59:35.659Z,27.00
2018-09-18T16:02:04.041Z,27.00
2018-09-18T16:04:32.374Z,26.90
2018-09-18T16:07:00.782Z,26.80
2018-09-18T16:09:29.143Z,26.60
2018-09-18T16:11:57.482Z,26.30
2018-09-18T16:14:26.019Z,26.00
2018-09-18T16:16:54.307Z,25.60
2018-09-18T16:19:22.649Z,25.50
2018-09-18T16:21:51.298Z,25.30
2018-09-18T16:24:19.681Z,25.10
2018-09-18T16:26:48.756Z,24.80
2018-09-18T16:29:17.137Z,24.20
2018-09-18T16:31:45.538Z,24.10
2018-09-18T16:34:13.996Z,24.00
2018-09-18T16:36:42.417Z,23.90
2018-09-18T16:39:10.747Z,23.70
2018-09-18T16:41:39.083Z,23.50
2018-09-18T16:44:07.481Z,23.30
2018-09-18T16:46:35.854Z,23.10
2018-09-18T16:49:04.654Z,23.00
2018-09-18T16:51:33.302Z,22.90
2018-09-18T16:54:01.951Z,22.90
2018-09-18T16:56:30.407Z,22.90
2018-09-18T16:58:58.727Z,22.70
2018-09-18T17:01:27.129Z,22.60
2018-09-18T17:03:55.489Z,22.60
2018-09-18T17:06:24.039Z,22.30
2018-09-18T17:08:53.342Z,22.40
2018-09-18T17:11:23.109Z,22.60
2018-09-18T17:13:51.461Z,22.50
2018-09-18T17:16:19.941Z,22.50
2018-09-18T17:18:54.829Z,22.10
2018-09-18T17:21:23.257Z,21.90
2018-09-18T17:23:51.746Z,21.90
2018-09-18T17:26:20.141Z,22.10
2018-09-18T17:28:49.393Z,22.10
2018-09-18T17:31:17.509Z,22.00
2018-09-18T17:33:45.912Z,21.90
2018-09-18T17:36:14.327Z,21.80
2018-09-18T17:38:42.723Z,21.70
2018-09-18T17:41:11.090Z,21.50
2018-09-18T17:43:39.529Z,21.50
2018-09-18T17:46:07.970Z,21.40
2018-09-18T17:48:36.285Z,21.30
2018-09-18T17:51:05.236Z,21.20
2018-09-18T17:53:34.384Z,21.20
2018-09-18T17:56:02.702Z,21.00
2018-09-18T17:58:31.683Z,20.70
2018-09-18T18:01:00.176Z,20.60
2018-09-18T18:03:28.612Z,20.60
2018-09-18T18:05:56.985Z,20.60
2018-09-18T18:08:25.439Z,20.70
2018-09-18T18:10:53.726Z,20.70
2018-09-18T18:13:22.108Z,20.70
2018-09-18T18:15:50.564Z,20.60
2018-09-18T18:18:18.936Z,20.60
2018-09-18T18:20:47.342Z,20.50
2018-09-18T18:23:15.677Z,20.40
2018-09-18T18:25:44.064Z,20.30
2018-09-18T18:28:12.476Z,20.30
2018-09-18T18:30:40.808Z,20.20
2018-09-18T18:33:09.176Z,20.10
2018-09-18T18:35:37.640Z,20.00
2018-09-18T18:38:06.008Z,20.00
2018-09-18T18:40:34.361Z,19.90
2018-09-18T18:43:02.724Z,19.90
2018-09-18T18:45:31.138Z,19.80
2018-09-18T18:47:59.740Z,19.80
2018-09-18T18:50:28.002Z,19.80
2018-09-18T18:52:56.400Z,19.50
2018-09-18T18:55:24.769Z,19.50
2018-09-18T18:57:53.122Z,19.50
2018-09-18T19:00:21.585Z,19.50
2018-09-18T19:02:49.953Z,19.50
2018-09-18T19:05:18.416Z,19.40
2018-09-18T19:07:47.349Z,19.40
2018-09-18T19:10:15.879Z,19.30
2018-09-18T19:12:44.279Z,19.30
2018-09-18T19:15:12.606Z,19.30
2018-09-18T19:17:40.978Z,19.20
2018-09-18T19:20:09.498Z,19.00
2018-09-18T19:22:38.116Z,19.00
2018-09-18T19:25:06.609Z,18.90
2018-09-18T19:27:34.967Z,18.90
2018-09-18T19:30:03.537Z,18.90
2018-09-18T19:32:32.017Z,18.80
2018-09-18T19:35:00.370Z,18.80
2018-09-18T19:37:29.575Z,18.70
2018-09-18T19:39:58.999Z,18.70
2018-09-18T19:42:27.360Z,18.70
2018-09-18T19:44:55.883Z,18.60
2018-09-18T19:47:24.217Z,18.50
2018-09-18T19:49:52.753Z,18.30
2018-09-18T19:52:21.267Z,18.20
2018-09-18T19:54:49.660Z,18.30
2018-09-18T19:57:18.021Z,18.30
2018-09-18T19:59:46.370Z,18.40
2018-09-18T20:02:14.732Z,18.40
2018-09-18T20:04:43.111Z,18.50
2018-09-18T20:07:11.515Z,18.50
2018-09-18T20:09:39.880Z,18.50
2018-09-18T20:12:08.203Z,18.50
2018-09-18T20:14:36.591Z,18.40
2018-09-18T20:17:05.364Z,18.40
2018-09-18T20:19:34.699Z,18.40
2018-09-18T20:22:03.041Z,18.30
2018-09-18T20:24:31.425Z,18.30
2018-09-18T20:27:00.513Z,18.20
2018-09-18T20:29:28.882Z,18.20
2018-09-18T20:31:57.324Z,18.10
2018-09-18T20:34:25.679Z,18.10
2018-09-18T20:36:54.031Z,18.10
2018-09-18T20:39:22.443Z,18.10
2018-09-18T20:41:50.918Z,18.00
2018-09-18T20:44:19.221Z,18.00
2018-09-18T20:46:47.559Z,18.00
2018-09-18T20:49:15.940Z,18.00
2018-09-18T20:51:44.318Z,18.00
2018-09-18T20:54:12.647Z,18.00
2018-09-18T20:56:40.991Z,18.00
2018-09-18T20:59:09.315Z,17.90
2018-09-18T21:01:37.661Z,17.90
2018-09-18T21:04:06.172Z,17.90
2018-09-18T21:06:34.491Z,17.90
2018-09-18T21:09:02.909Z,17.90
2018-09-18T21:11:31.230Z,17.90
2018-09-18T21:13:59.563Z,17.90
2018-09-18T21:16:27.902Z,17.90
2018-09-18T21:18:56.318Z,17.90
2018-09-18T21:21:25.273Z,17.90
2018-09-18T21:23:53.596Z,17.90
2018-09-18T21:26:21.944Z,17.90
2018-09-18T21:28:50.770Z,17.80
2018-09-18T21:31:19.100Z,17.80
2018-09-18T21:33:47.427Z,17.80
2018-09-18T21:36:15.790Z,17.80
2018-09-18T21:38:44.369Z,17.80
2018-09-18T21:41:12.805Z,17.80
2018-09-18T21:43:41.169Z,17.80
2018-09-18T21:46:09.459Z,17.80
2018-09-18T21:48:37.857Z,17.80
2018-09-18T21:51:12.817Z,17.80
2018-09-18T21:53:41.243Z,17.50
2018-09-18T21:56:09.567Z,17.50
2018-09-18T21:58:38.517Z,17.50
2018-09-18T22:01:07.298Z,17.50
2018-09-18T22:03:35.848Z,17.50
2018-09-18T22:06:04.341Z,17.50
2018-09-18T22:08:32.691Z,17.50
2018-09-18T22:11:01.031Z,17.50
2018-09-18T22:13:29.349Z,17.50
2018-09-18T22:15:57.715Z,17.50
2018-09-18T22:18:26.096Z,17.50
2018-09-18T22:20:54.422Z,17.50
2018-09-18T22:23:22.769Z,17.60
2018-09-18T22:25:51.109Z,17.60
2018-09-18T22:28:19.538Z,17.60
2018-09-18T22:30:47.896Z,17.60
2018-09-18T22:33:16.225Z,17.60
2018-09-18T22:35:44.586Z,17.60
2018-09-18T22:38:13.010Z,17.50
2018-09-18T22:40:41.381Z,17.50
2018-09-18T22:43:09.779Z,17.40
2018-09-18T22:45:38.098Z,17.40
2018-09-18T22:48:07.166Z,17.40
2018-09-18T22:50:35.610Z,17.40
2018-09-18T22:53:04.742Z,17.40
2018-09-18T22:55:33.127Z,17.40
2018-09-18T22:58:01.475Z,17.40
2018-09-18T23:00:29.828Z,17.40
2018-09-18T23:02:58.185Z,17.40
2018-09-18T23:05:26.615Z,17.40
2018-09-18T23:07:54.986Z,17.40
2018-09-18T23:10:23.297Z,17.40
2018-09-18T23:15:26.465Z,17.10
2018-09-18T23:17:55.664Z,17.00
2018-09-18T23:20:24.010Z,17.00
2018-09-18T23:22:52.324Z,17.00
2018-09-18T23:25:20.620Z,17.00
2018-09-18T23:27:48.958Z,17.00
2018-09-18T23:30:17.282Z,17.10
2018-09-18T23:32:46.243Z,17.00
2018-09-18T23:35:14.542Z,17.00
2018-09-18T23:37:42.882Z,17.00
2018-09-18T23:40:11.248Z,17.00
2018-09-18T23:42:39.596Z,17.00
2018-09-18T23:45:07.956Z,17.00
2018-09-18T23:47:36.264Z,16.80
2018-09-18T23:50:04.732Z,16.70
2018-09-18T23:52:33.085Z,16.60
2018-09-18T23:55:01.415Z,16.40
2018-09-18T23:57:29.798Z,16.40
2018-09-18T23:59:58.126Z,16.40
